sensor_id;sensor_type;location;lat;lon;timestamp;P1;durP1;ratioP1;P2;durP2;ratioP2
9997;SDS011;5038;53.064;8.624;2022-08-19T00:01:54;12.13;;;10.93;;
9997;SDS011;5038;53.064;8.624;2022-08-19T00:04:28;16.03;;;12.87;;
9997;SDS011;5038;53.064;8.624;2022-08-19T00:06:59;12.40;;;11.20;;
9997;SDS011;5038;53.064;8.624;2022-08-19T00:09:27;12.97;;;11.70;;
9997;SDS011;5038;53.064;8.624;2022-08-19T00:11:56;13.00;;;11.80;;
9997;SDS011;5038;53.064;8.624;2022-08-19T00:14:26;12.20;;;11.10;;
9997;SDS011;5038;53.064;8.624;2022-08-19T00:16:58;13.13;;;11.80;;
9997;SDS011;5038;53.064;8.624;2022-08-19T00:19:28;11.60;;;10.50;;
9997;SDS011;5038;53.064;8.624;2022-08-19T00:21:56;12.43;;;11.13;;
9997;SDS011;5038;53.064;8.624;2022-08-19T00:24:24;11.43;;;10.23;;
9997;SDS011;5038;53.064;8.624;2022-08-19T00:26:55;12.13;;;10.93;;
9997;SDS011;5038;53.064;8.624;2022-08-19T00:29:43;12.03;;;10.67;;
9997;SDS011;5038;53.064;8.624;2022-08-19T00:32:18;11.70;;;10.70;;
9997;SDS011;5038;53.064;8.624;2022-08-19T00:34:47;11.27;;;10.20;;
9997;SDS011;5038;53.064;8.624;2022-08-19T00:37:16;11.97;;;10.87;;
9997;SDS011;5038;53.064;8.624;2022-08-19T00:39:45;11.70;;;10.50;;
9997;SDS011;5038;53.064;8.624;2022-08-19T00:42:14;12.50;;;11.23;;
9997;SDS011;5038;53.064;8.624;2022-08-19T00:44:43;12.83;;;11.07;;
9997;SDS011;5038;53.064;8.624;2022-08-19T00:47:12;11.57;;;10.37;;
9997;SDS011;5038;53.064;8.624;2022-08-19T00:49:42;20.33;;;11.80;;
9997;SDS011;5038;53.064;8.624;2022-08-19T00:52:20;12.20;;;10.90;;
9997;SDS011;5038;53.064;8.624;2022-08-19T00:54:53;12.00;;;10.90;;
9997;SDS011;5038;53.064;8.624;2022-08-19T00:57:22;12.70;;;11.47;;
9997;SDS011;5038;53.064;8.624;2022-08-19T00:59:54;12.97;;;11.67;;
9997;SDS011;5038;53.064;8.624;2022-08-19T01:02:28;14.57;;;11.97;;
9997;SDS011;5038;53.064;8.624;2022-08-19T01:04:59;12.80;;;11.50;;
9997;SDS011;5038;53.064;8.624;2022-08-19T01:07:30;13.60;;;12.37;;
9997;SDS011;5038;53.064;8.624;2022-08-19T01:10:04;14.67;;;12.93;;
9997;SDS011;5038;53.064;8.624;2022-08-19T01:12:35;13.67;;;11.60;;
9997;SDS011;5038;53.064;8.624;2022-08-19T01:15:03;13.23;;;11.57;;
9997;SDS011;5038;53.064;8.624;2022-08-19T01:17:33;11.90;;;10.70;;
9997;SDS011;5038;53.064;8.624;2022-08-19T01:20:04;13.27;;;11.97;;
9997;SDS011;5038;53.064;8.624;2022-08-19T01:22:35;11.93;;;10.73;;
9997;SDS011;5038;53.064;8.624;2022-08-19T01:25:08;12.53;;;11.27;;
9997;SDS011;5038;53.064;8.624;2022-08-19T01:27:41;14.93;;;13.40;;
9997;SDS011;5038;53.064;8.624;2022-08-19T01:30:15;14.20;;;12.90;;
9997;SDS011;5038;53.064;8.624;2022-08-19T01:32:46;13.73;;;12.47;;
9997;SDS011;5038;53.064;8.624;2022-08-19T01:35:14;14.90;;;13.40;;
9997;SDS011;5038;53.064;8.624;2022-08-19T01:37:47;15.20;;;13.90;;
9997;SDS011;5038;53.064;8.624;2022-08-19T01:40:18;15.00;;;13.70;;
9997;SDS011;5038;53.064;8.624;2022-08-19T01:42:48;14.97;;;13.47;;
9997;SDS011;5038;53.064;8.624;2022-08-19T01:45:16;14.27;;;12.87;;
9997;SDS011;5038;53.064;8.624;2022-08-19T01:47:45;15.50;;;13.20;;
9997;SDS011;5038;53.064;8.624;2022-08-19T01:50:27;15.40;;;13.90;;
9997;SDS011;5038;53.064;8.624;2022-08-19T01:52:58;16.03;;;14.43;;
9997;SDS011;5038;53.064;8.624;2022-08-19T01:55:33;15.40;;;13.97;;
9997;SDS011;5038;53.064;8.624;2022-08-19T01:58:06;14.50;;;13.00;;
9997;SDS011;5038;53.064;8.624;2022-08-19T02:00:38;13.27;;;12.00;;
9997;SDS011;5038;53.064;8.624;2022-08-19T02:03:06;15.70;;;14.20;;
9997;SDS011;5038;53.064;8.624;2022-08-19T02:05:35;15.43;;;13.93;;
9997;SDS011;5038;53.064;8.624;2022-08-19T02:08:05;15.20;;;13.90;;
9997;SDS011;5038;53.064;8.624;2022-08-19T02:10:37;14.87;;;13.40;;
9997;SDS011;5038;53.064;8.624;2022-08-19T02:13:06;16.27;;;14.80;;
9997;SDS011;5038;53.064;8.624;2022-08-19T02:15:36;16.33;;;14.60;;
9997;SDS011;5038;53.064;8.624;2022-08-19T02:18:04;15.90;;;14.30;;
9997;SDS011;5038;53.064;8.624;2022-08-19T02:20:33;16.13;;;13.87;;
9997;SDS011;5038;53.064;8.624;2022-08-19T02:23:02;17.70;;;15.80;;
9997;SDS011;5038;53.064;8.624;2022-08-19T02:25:31;17.93;;;16.10;;
9997;SDS011;5038;53.064;8.624;2022-08-19T02:27:59;18.10;;;16.37;;
9997;SDS011;5038;53.064;8.624;2022-08-19T02:30:28;17.90;;;16.20;;
9997;SDS011;5038;53.064;8.624;2022-08-19T02:32:56;16.73;;;15.03;;
9997;SDS011;5038;53.064;8.624;2022-08-19T02:35:24;27.27;;;16.73;;
9997;SDS011;5038;53.064;8.624;2022-08-19T02:37:53;16.47;;;14.97;;
9997;SDS011;5038;53.064;8.624;2022-08-19T02:40:40;17.97;;;16.10;;
9997;SDS011;5038;53.064;8.624;2022-08-19T02:43:08;18.30;;;16.43;;
9997;SDS011;5038;53.064;8.624;2022-08-19T02:45:37;17.47;;;15.77;;
9997;SDS011;5038;53.064;8.624;2022-08-19T02:48:07;17.73;;;16.03;;
9997;SDS011;5038;53.064;8.624;2022-08-19T02:50:47;18.77;;;16.87;;
9997;SDS011;5038;53.064;8.624;2022-08-19T02:53:19;17.83;;;16.13;;
9997;SDS011;5038;53.064;8.624;2022-08-19T02:55:50;17.50;;;15.90;;
9997;SDS011;5038;53.064;8.624;2022-08-19T02:58:18;17.50;;;15.90;;
9997;SDS011;5038;53.064;8.624;2022-08-19T03:00:51;17.97;;;16.17;;
9997;SDS011;5038;53.064;8.624;2022-08-19T03:03:21;18.03;;;16.13;;
9997;SDS011;5038;53.064;8.624;2022-08-19T03:05:49;17.63;;;15.73;;
9997;SDS011;5038;53.064;8.624;2022-08-19T03:08:22;18.27;;;16.30;;
9997;SDS011;5038;53.064;8.624;2022-08-19T03:10:53;17.63;;;15.80;;
9997;SDS011;5038;53.064;8.624;2022-08-19T03:13:21;18.00;;;16.20;;
9997;SDS011;5038;53.064;8.624;2022-08-19T03:15:50;17.50;;;15.43;;
9997;SDS011;5038;53.064;8.624;2022-08-19T03:18:18;18.00;;;15.77;;
9997;SDS011;5038;53.064;8.624;2022-08-19T03:20:49;17.30;;;15.60;;
9997;SDS011;5038;53.064;8.624;2022-08-19T03:23:19;16.67;;;15.07;;
9997;SDS011;5038;53.064;8.624;2022-08-19T03:25:47;17.37;;;15.60;;
9997;SDS011;5038;53.064;8.624;2022-08-19T03:28:38;15.23;;;13.83;;
9997;SDS011;5038;53.064;8.624;2022-08-19T03:31:07;16.63;;;15.07;;
9997;SDS011;5038;53.064;8.624;2022-08-19T03:33:57;18.30;;;16.40;;
9997;SDS011;5038;53.064;8.624;2022-08-19T03:36:26;18.60;;;16.70;;
9997;SDS011;5038;53.064;8.624;2022-08-19T03:38:56;17.37;;;15.70;;
9997;SDS011;5038;53.064;8.624;2022-08-19T03:41:26;19.00;;;17.17;;
9997;SDS011;5038;53.064;8.624;2022-08-19T03:44:13;19.17;;;17.40;;
9997;SDS011;5038;53.064;8.624;2022-08-19T03:46:44;17.27;;;15.67;;
9997;SDS011;5038;53.064;8.624;2022-08-19T03:49:13;15.80;;;14.37;;
9997;SDS011;5038;53.064;8.624;2022-08-19T03:51:44;16.23;;;14.63;;
9997;SDS011;5038;53.064;8.624;2022-08-19T03:54:14;16.13;;;14.53;;
9997;SDS011;5038;53.064;8.624;2022-08-19T03:56:44;16.00;;;14.40;;
9997;SDS011;5038;53.064;8.624;2022-08-19T03:59:17;17.87;;;16.17;;
9997;SDS011;5038;53.064;8.624;2022-08-19T04:01:52;17.00;;;15.40;;
9997;SDS011;5038;53.064;8.624;2022-08-19T04:04:21;17.87;;;16.17;;
9997;SDS011;5038;53.064;8.624;2022-08-19T04:06:50;17.57;;;15.87;;
9997;SDS011;5038;53.064;8.624;2022-08-19T04:09:18;18.30;;;16.50;;
9997;SDS011;5038;53.064;8.624;2022-08-19T04:11:48;18.00;;;16.37;;
9997;SDS011;5038;53.064;8.624;2022-08-19T04:14:22;16.90;;;15.20;;
9997;SDS011;5038;53.064;8.624;2022-08-19T04:16:51;20.67;;;18.17;;
9997;SDS011;5038;53.064;8.624;2022-08-19T04:19:20;19.23;;;17.30;;
9997;SDS011;5038;53.064;8.624;2022-08-19T04:21:50;18.10;;;16.40;;
9997;SDS011;5038;53.064;8.624;2022-08-19T04:24:20;20.20;;;17.33;;
9997;SDS011;5038;53.064;8.624;2022-08-19T04:26:49;20.13;;;18.07;;
9997;SDS011;5038;53.064;8.624;2022-08-19T04:29:18;19.43;;;17.50;;
9997;SDS011;5038;53.064;8.624;2022-08-19T04:31:53;20.00;;;18.00;;
9997;SDS011;5038;53.064;8.624;2022-08-19T04:34:23;21.90;;;19.70;;
9997;SDS011;5038;53.064;8.624;2022-08-19T04:36:52;23.37;;;20.30;;
9997;SDS011;5038;53.064;8.624;2022-08-19T04:39:23;23.90;;;21.17;;
9997;SDS011;5038;53.064;8.624;2022-08-19T04:42:12;25.53;;;22.40;;
9997;SDS011;5038;53.064;8.624;2022-08-19T04:44:59;24.80;;;22.33;;
9997;SDS011;5038;53.064;8.624;2022-08-19T04:47:32;25.33;;;22.80;;
9997;SDS011;5038;53.064;8.624;2022-08-19T04:50:20;23.80;;;20.17;;
9997;SDS011;5038;53.064;8.624;2022-08-19T04:52:50;26.60;;;21.23;;
9997;SDS011;5038;53.064;8.624;2022-08-19T04:55:19;25.03;;;21.30;;
9997;SDS011;5038;53.064;8.624;2022-08-19T04:57:47;24.20;;;21.50;;
9997;SDS011;5038;53.064;8.624;2022-08-19T05:00:17;22.57;;;20.27;;
9997;SDS011;5038;53.064;8.624;2022-08-19T05:02:46;22.33;;;20.03;;
9997;SDS011;5038;53.064;8.624;2022-08-19T05:05:15;23.20;;;20.43;;
9997;SDS011;5038;53.064;8.624;2022-08-19T05:07:44;24.70;;;20.27;;
9997;SDS011;5038;53.064;8.624;2022-08-19T05:10:12;21.10;;;18.90;;
9997;SDS011;5038;53.064;8.624;2022-08-19T05:12:40;22.57;;;20.17;;
9997;SDS011;5038;53.064;8.624;2022-08-19T05:15:08;20.33;;;17.67;;
9997;SDS011;5038;53.064;8.624;2022-08-19T05:17:37;19.00;;;17.03;;
9997;SDS011;5038;53.064;8.624;2022-08-19T05:20:27;20.07;;;18.00;;
9997;SDS011;5038;53.064;8.624;2022-08-19T05:23:13;19.43;;;17.40;;
9997;SDS011;5038;53.064;8.624;2022-08-19T05:25:48;18.77;;;16.77;;
9997;SDS011;5038;53.064;8.624;2022-08-19T05:28:16;19.13;;;17.07;;
9997;SDS011;5038;53.064;8.624;2022-08-19T05:30:45;18.40;;;15.93;;
9997;SDS011;5038;53.064;8.624;2022-08-19T05:33:14;19.43;;;17.47;;
9997;SDS011;5038;53.064;8.624;2022-08-19T05:35:44;19.07;;;17.37;;
9997;SDS011;5038;53.064;8.624;2022-08-19T05:38:12;18.73;;;17.03;;
9997;SDS011;5038;53.064;8.624;2022-08-19T05:40:40;17.73;;;16.13;;
9997;SDS011;5038;53.064;8.624;2022-08-19T05:43:12;17.50;;;15.90;;
9997;SDS011;5038;53.064;8.624;2022-08-19T05:45:41;18.40;;;16.50;;
9997;SDS011;5038;53.064;8.624;2022-08-19T05:48:10;17.27;;;15.67;;
9997;SDS011;5038;53.064;8.624;2022-08-19T05:50:40;15.57;;;14.07;;
9997;SDS011;5038;53.064;8.624;2022-08-19T05:53:12;16.37;;;14.20;;
9997;SDS011;5038;53.064;8.624;2022-08-19T05:55:40;16.10;;;14.50;;
9997;SDS011;5038;53.064;8.624;2022-08-19T05:58:08;16.00;;;14.40;;
9997;SDS011;5038;53.064;8.624;2022-08-19T06:00:37;16.10;;;14.50;;
9997;SDS011;5038;53.064;8.624;2022-08-19T06:03:06;16.07;;;14.57;;
9997;SDS011;5038;53.064;8.624;2022-08-19T06:05:38;15.40;;;13.90;;
9997;SDS011;5038;53.064;8.624;2022-08-19T06:08:19;16.13;;;14.30;;
9997;SDS011;5038;53.064;8.624;2022-08-19T06:11:11;16.33;;;14.73;;
9997;SDS011;5038;53.064;8.624;2022-08-19T06:13:42;15.60;;;14.10;;
9997;SDS011;5038;53.064;8.624;2022-08-19T06:16:11;14.93;;;13.43;;
9997;SDS011;5038;53.064;8.624;2022-08-19T06:18:39;14.80;;;13.20;;
9997;SDS011;5038;53.064;8.624;2022-08-19T06:21:07;13.87;;;12.57;;
9997;SDS011;5038;53.064;8.624;2022-08-19T06:23:37;13.93;;;12.53;;
9997;SDS011;5038;53.064;8.624;2022-08-19T06:26:05;12.10;;;10.97;;
9997;SDS011;5038;53.064;8.624;2022-08-19T06:28:34;12.90;;;11.77;;
9997;SDS011;5038;53.064;8.624;2022-08-19T06:31:05;13.27;;;12.03;;
9997;SDS011;5038;53.064;8.624;2022-08-19T06:33:34;12.33;;;11.30;;
9997;SDS011;5038;53.064;8.624;2022-08-19T06:36:04;13.00;;;11.90;;
9997;SDS011;5038;53.064;8.624;2022-08-19T06:38:32;11.40;;;10.30;;
9997;SDS011;5038;53.064;8.624;2022-08-19T06:41:02;11.50;;;10.40;;
9997;SDS011;5038;53.064;8.624;2022-08-19T06:43:33;12.00;;;11.00;;
9997;SDS011;5038;53.064;8.624;2022-08-19T06:46:11;10.20;;;9.23;;
9997;SDS011;5038;53.064;8.624;2022-08-19T06:48:40;12.33;;;10.33;;
9997;SDS011;5038;53.064;8.624;2022-08-19T06:51:11;12.03;;;10.93;;
9997;SDS011;5038;53.064;8.624;2022-08-19T06:53:44;10.70;;;9.80;;
9997;SDS011;5038;53.064;8.624;2022-08-19T06:56:15;10.80;;;9.80;;
9997;SDS011;5038;53.064;8.624;2022-08-19T06:58:45;11.40;;;10.40;;
9997;SDS011;5038;53.064;8.624;2022-08-19T07:01:19;11.70;;;10.70;;
9997;SDS011;5038;53.064;8.624;2022-08-19T07:03:47;10.90;;;9.80;;
9997;SDS011;5038;53.064;8.624;2022-08-19T07:06:16;9.10;;;8.33;;
9997;SDS011;5038;53.064;8.624;2022-08-19T07:09:06;11.47;;;10.47;;
9997;SDS011;5038;53.064;8.624;2022-08-19T07:11:39;10.17;;;9.37;;
9997;SDS011;5038;53.064;8.624;2022-08-19T07:14:12;11.20;;;10.17;;
9997;SDS011;5038;53.064;8.624;2022-08-19T07:16:45;10.73;;;9.73;;
9997;SDS011;5038;53.064;8.624;2022-08-19T07:19:14;10.60;;;9.70;;
9997;SDS011;5038;53.064;8.624;2022-08-19T07:21:44;10.83;;;9.93;;
9997;SDS011;5038;53.064;8.624;2022-08-19T07:24:13;11.00;;;10.10;;
9997;SDS011;5038;53.064;8.624;2022-08-19T07:26:43;10.60;;;9.77;;
9997;SDS011;5038;53.064;8.624;2022-08-19T07:29:18;11.23;;;10.00;;
9997;SDS011;5038;53.064;8.624;2022-08-19T07:31:51;10.03;;;9.23;;
9997;SDS011;5038;53.064;8.624;2022-08-19T07:34:22;12.70;;;10.30;;
9997;SDS011;5038;53.064;8.624;2022-08-19T07:36:51;9.90;;;9.00;;
9997;SDS011;5038;53.064;8.624;2022-08-19T07:39:21;9.90;;;9.00;;
9997;SDS011;5038;53.064;8.624;2022-08-19T07:41:52;10.03;;;9.13;;
9997;SDS011;5038;53.064;8.624;2022-08-19T07:44:21;10.30;;;9.00;;
9997;SDS011;5038;53.064;8.624;2022-08-19T07:46:51;11.03;;;10.03;;
9997;SDS011;5038;53.064;8.624;2022-08-19T07:49:22;9.70;;;8.90;;
9997;SDS011;5038;53.064;8.624;2022-08-19T07:51:52;9.03;;;8.13;;
9997;SDS011;5038;53.064;8.624;2022-08-19T07:54:23;8.80;;;8.00;;
9997;SDS011;5038;53.064;8.624;2022-08-19T07:56:54;9.17;;;8.30;;
9997;SDS011;5038;53.064;8.624;2022-08-19T07:59:23;9.67;;;8.77;;
9997;SDS011;5038;53.064;8.624;2022-08-19T08:01:52;10.53;;;9.40;;
9997;SDS011;5038;53.064;8.624;2022-08-19T08:04:20;8.00;;;7.30;;
9997;SDS011;5038;53.064;8.624;2022-08-19T08:07:06;9.60;;;8.80;;
9997;SDS011;5038;53.064;8.624;2022-08-19T08:09:57;34.30;;;14.53;;
9997;SDS011;5038;53.064;8.624;2022-08-19T08:12:31;10.50;;;9.43;;
9997;SDS011;5038;53.064;8.624;2022-08-19T08:15:05;10.03;;;9.13;;
9997;SDS011;5038;53.064;8.624;2022-08-19T08:17:38;9.10;;;8.20;;
9997;SDS011;5038;53.064;8.624;2022-08-19T08:20:16;7.90;;;7.30;;
9997;SDS011;5038;53.064;8.624;2022-08-19T08:22:45;8.37;;;7.67;;
9997;SDS011;5038;53.064;8.624;2022-08-19T08:25:32;9.73;;;8.93;;
9997;SDS011;5038;53.064;8.624;2022-08-19T08:28:03;8.37;;;7.67;;
9997;SDS011;5038;53.064;8.624;2022-08-19T08:30:32;8.47;;;7.60;;
9997;SDS011;5038;53.064;8.624;2022-08-19T08:33:02;8.13;;;7.43;;
9997;SDS011;5038;53.064;8.624;2022-08-19T08:35:32;9.07;;;8.27;;
9997;SDS011;5038;53.064;8.624;2022-08-19T08:38:00;9.23;;;8.53;;
9997;SDS011;5038;53.064;8.624;2022-08-19T08:40:33;9.83;;;9.03;;
9997;SDS011;5038;53.064;8.624;2022-08-19T08:43:18;8.63;;;7.83;;
9997;SDS011;5038;53.064;8.624;2022-08-19T08:45:59;7.47;;;6.77;;
9997;SDS011;5038;53.064;8.624;2022-08-19T08:48:33;7.37;;;6.77;;
9997;SDS011;5038;53.064;8.624;2022-08-19T08:51:08;6.20;;;5.70;;
9997;SDS011;5038;53.064;8.624;2022-08-19T08:53:45;7.77;;;7.07;;
9997;SDS011;5038;53.064;8.624;2022-08-19T08:56:21;6.30;;;5.80;;
9997;SDS011;5038;53.064;8.624;2022-08-19T08:58:54;6.40;;;5.80;;
9997;SDS011;5038;53.064;8.624;2022-08-19T09:01:27;6.23;;;5.63;;
9997;SDS011;5038;53.064;8.624;2022-08-19T09:03:56;5.70;;;5.23;;
9997;SDS011;5038;53.064;8.624;2022-08-19T09:06:29;5.13;;;4.73;;
9997;SDS011;5038;53.064;8.624;2022-08-19T09:09:10;5.00;;;4.50;;
9997;SDS011;5038;53.064;8.624;2022-08-19T09:11:46;4.47;;;4.07;;
9997;SDS011;5038;53.064;8.624;2022-08-19T09:14:28;4.67;;;4.20;;
9997;SDS011;5038;53.064;8.624;2022-08-19T09:17:21;4.27;;;3.87;;
9997;SDS011;5038;53.064;8.624;2022-08-19T09:19:58;4.00;;;3.70;;
9997;SDS011;5038;53.064;8.624;2022-08-19T09:22:30;4.77;;;3.20;;
9997;SDS011;5038;53.064;8.624;2022-08-19T09:24:59;3.37;;;2.97;;
9997;SDS011;5038;53.064;8.624;2022-08-19T09:27:28;4.30;;;3.43;;
9997;SDS011;5038;53.064;8.624;2022-08-19T09:30:13;3.80;;;3.43;;
9997;SDS011;5038;53.064;8.624;2022-08-19T09:32:43;3.60;;;2.87;;
9997;SDS011;5038;53.064;8.624;2022-08-19T09:35:18;3.70;;;3.40;;
9997;SDS011;5038;53.064;8.624;2022-08-19T09:37:49;3.47;;;2.40;;
9997;SDS011;5038;53.064;8.624;2022-08-19T09:40:24;2.47;;;2.17;;
9997;SDS011;5038;53.064;8.624;2022-08-19T09:42:55;3.20;;;2.90;;
9997;SDS011;5038;53.064;8.624;2022-08-19T09:45:38;3.00;;;2.70;;
9997;SDS011;5038;53.064;8.624;2022-08-19T09:48:06;4.77;;;2.80;;
9997;SDS011;5038;53.064;8.624;2022-08-19T09:50:37;3.67;;;3.10;;
9997;SDS011;5038;53.064;8.624;2022-08-19T09:53:18;4.30;;;2.20;;
9997;SDS011;5038;53.064;8.624;2022-08-19T09:55:51;3.13;;;2.27;;
9997;SDS011;5038;53.064;8.624;2022-08-19T09:58:19;3.33;;;2.43;;
9997;SDS011;5038;53.064;8.624;2022-08-19T10:00:53;2.43;;;2.17;;
9997;SDS011;5038;53.064;8.624;2022-08-19T10:03:22;3.13;;;2.10;;
9997;SDS011;5038;53.064;8.624;2022-08-19T10:05:56;2.50;;;2.20;;
9997;SDS011;5038;53.064;8.624;2022-08-19T10:08:26;2.47;;;1.60;;
9997;SDS011;5038;53.064;8.624;2022-08-19T10:10:55;2.37;;;1.33;;
9997;SDS011;5038;53.064;8.624;2022-08-19T10:13:45;1.70;;;1.40;;
9997;SDS011;5038;53.064;8.624;2022-08-19T10:16:16;2.13;;;1.30;;
9997;SDS011;5038;53.064;8.624;2022-08-19T10:18:51;2.33;;;1.23;;
9997;SDS011;5038;53.064;8.624;2022-08-19T10:21:25;2.60;;;1.40;;
9997;SDS011;5038;53.064;8.624;2022-08-19T10:23:58;2.20;;;1.70;;
9997;SDS011;5038;53.064;8.624;2022-08-19T10:26:30;2.50;;;1.77;;
9997;SDS011;5038;53.064;8.624;2022-08-19T10:29:00;2.27;;;1.90;;
9997;SDS011;5038;53.064;8.624;2022-08-19T10:31:30;2.47;;;1.90;;
9997;SDS011;5038;53.064;8.624;2022-08-19T10:34:20;3.70;;;2.27;;
9997;SDS011;5038;53.064;8.624;2022-08-19T10:36:53;2.37;;;2.07;;
9997;SDS011;5038;53.064;8.624;2022-08-19T10:39:26;2.30;;;1.77;;
9997;SDS011;5038;53.064;8.624;2022-08-19T10:41:57;2.57;;;1.93;;
9997;SDS011;5038;53.064;8.624;2022-08-19T10:44:25;2.50;;;2.10;;
9997;SDS011;5038;53.064;8.624;2022-08-19T10:46:59;2.47;;;1.97;;
9997;SDS011;5038;53.064;8.624;2022-08-19T10:49:27;2.97;;;1.60;;
9997;SDS011;5038;53.064;8.624;2022-08-19T10:51:55;2.20;;;1.60;;
9997;SDS011;5038;53.064;8.624;2022-08-19T10:54:45;2.23;;;2.03;;
9997;SDS011;5038;53.064;8.624;2022-08-19T10:57:34;2.43;;;1.80;;
9997;SDS011;5038;53.064;8.624;2022-08-19T11:00:22;1.80;;;1.30;;
9997;SDS011;5038;53.064;8.624;2022-08-19T11:02:53;1.80;;;1.53;;
9997;SDS011;5038;53.064;8.624;2022-08-19T11:05:22;1.70;;;1.60;;
9997;SDS011;5038;53.064;8.624;2022-08-19T11:07:50;2.00;;;1.53;;
9997;SDS011;5038;53.064;8.624;2022-08-19T11:10:19;1.80;;;1.30;;
9997;SDS011;5038;53.064;8.624;2022-08-19T11:12:48;2.07;;;1.63;;
9997;SDS011;5038;53.064;8.624;2022-08-19T11:15:20;1.60;;;1.30;;
9997;SDS011;5038;53.064;8.624;2022-08-19T11:17:50;1.70;;;1.10;;
9997;SDS011;5038;53.064;8.624;2022-08-19T11:20:22;2.00;;;1.30;;
9997;SDS011;5038;53.064;8.624;2022-08-19T11:22:51;1.93;;;1.40;;
9997;SDS011;5038;53.064;8.624;2022-08-19T11:25:20;1.80;;;1.10;;
9997;SDS011;5038;53.064;8.624;2022-08-19T11:27:48;1.70;;;1.30;;
9997;SDS011;5038;53.064;8.624;2022-08-19T11:30:18;1.50;;;1.10;;
9997;SDS011;5038;53.064;8.624;2022-08-19T11:32:47;1.80;;;1.30;;
9997;SDS011;5038;53.064;8.624;2022-08-19T11:35:17;1.80;;;1.40;;
9997;SDS011;5038;53.064;8.624;2022-08-19T11:37:47;2.53;;;1.40;;
9997;SDS011;5038;53.064;8.624;2022-08-19T11:40:15;2.20;;;1.37;;
9997;SDS011;5038;53.064;8.624;2022-08-19T11:42:44;1.63;;;1.07;;
9997;SDS011;5038;53.064;8.624;2022-08-19T11:45:24;2.00;;;1.17;;
9997;SDS011;5038;53.064;8.624;2022-08-19T11:47:54;1.70;;;1.10;;
9997;SDS011;5038;53.064;8.624;2022-08-19T11:50:24;3.00;;;1.13;;
9997;SDS011;5038;53.064;8.624;2022-08-19T11:52:53;2.43;;;1.20;;
9997;SDS011;5038;53.064;8.624;2022-08-19T11:55:22;1.60;;;1.00;;
9997;SDS011;5038;53.064;8.624;2022-08-19T11:57:50;1.80;;;0.90;;
9997;SDS011;5038;53.064;8.624;2022-08-19T12:00:19;2.73;;;1.50;;
9997;SDS011;5038;53.064;8.624;2022-08-19T12:02:47;2.70;;;1.70;;
9997;SDS011;5038;53.064;8.624;2022-08-19T12:05:15;1.70;;;1.20;;
9997;SDS011;5038;53.064;8.624;2022-08-19T12:07:45;1.53;;;1.07;;
9997;SDS011;5038;53.064;8.624;2022-08-19T12:10:13;2.20;;;0.90;;
9997;SDS011;5038;53.064;8.624;2022-08-19T12:12:46;1.60;;;1.00;;
9997;SDS011;5038;53.064;8.624;2022-08-19T12:15:24;1.80;;;1.00;;
9997;SDS011;5038;53.064;8.624;2022-08-19T12:18:02;1.50;;;0.90;;
9997;SDS011;5038;53.064;8.624;2022-08-19T12:20:33;2.60;;;1.00;;
9997;SDS011;5038;53.064;8.624;2022-08-19T12:23:04;1.60;;;1.20;;
9997;SDS011;5038;53.064;8.624;2022-08-19T12:25:33;1.40;;;0.90;;
9997;SDS011;5038;53.064;8.624;2022-08-19T12:28:01;1.43;;;0.83;;
9997;SDS011;5038;53.064;8.624;2022-08-19T12:30:30;1.50;;;0.80;;
9997;SDS011;5038;53.064;8.624;2022-08-19T12:32:58;1.57;;;1.00;;
9997;SDS011;5038;53.064;8.624;2022-08-19T12:35:26;2.13;;;0.97;;
9997;SDS011;5038;53.064;8.624;2022-08-19T12:37:56;1.50;;;1.10;;
9997;SDS011;5038;53.064;8.624;2022-08-19T12:40:27;1.87;;;1.00;;
9997;SDS011;5038;53.064;8.624;2022-08-19T12:42:56;1.70;;;1.20;;
9997;SDS011;5038;53.064;8.624;2022-08-19T12:45:25;1.57;;;1.17;;
9997;SDS011;5038;53.064;8.624;2022-08-19T12:47:53;1.70;;;0.90;;
9997;SDS011;5038;53.064;8.624;2022-08-19T12:50:21;2.03;;;1.30;;
9997;SDS011;5038;53.064;8.624;2022-08-19T12:52:49;1.50;;;1.03;;
9997;SDS011;5038;53.064;8.624;2022-08-19T12:55:18;1.70;;;1.30;;
9997;SDS011;5038;53.064;8.624;2022-08-19T12:57:47;2.17;;;1.37;;
9997;SDS011;5038;53.064;8.624;2022-08-19T13:00:18;2.03;;;1.30;;
9997;SDS011;5038;53.064;8.624;2022-08-19T13:02:49;2.63;;;1.50;;
9997;SDS011;5038;53.064;8.624;2022-08-19T13:05:19;1.60;;;1.30;;
9997;SDS011;5038;53.064;8.624;2022-08-19T13:07:50;2.00;;;1.37;;
9997;SDS011;5038;53.064;8.624;2022-08-19T13:10:22;1.80;;;1.40;;
9997;SDS011;5038;53.064;8.624;2022-08-19T13:12:55;1.87;;;1.33;;
9997;SDS011;5038;53.064;8.624;2022-08-19T13:15:25;2.30;;;1.40;;
9997;SDS011;5038;53.064;8.624;2022-08-19T13:17:57;1.77;;;1.20;;
9997;SDS011;5038;53.064;8.624;2022-08-19T13:20:26;2.27;;;1.40;;
9997;SDS011;5038;53.064;8.624;2022-08-19T13:22:54;1.60;;;1.10;;
9997;SDS011;5038;53.064;8.624;2022-08-19T13:25:23;1.60;;;1.30;;
9997;SDS011;5038;53.064;8.624;2022-08-19T13:27:52;2.23;;;1.40;;
9997;SDS011;5038;53.064;8.624;2022-08-19T13:30:22;1.73;;;1.40;;
9997;SDS011;5038;53.064;8.624;2022-08-19T13:33:08;1.60;;;1.47;;
9997;SDS011;5038;53.064;8.624;2022-08-19T13:35:43;2.00;;;1.80;;
9997;SDS011;5038;53.064;8.624;2022-08-19T13:38:14;1.70;;;1.50;;
9997;SDS011;5038;53.064;8.624;2022-08-19T13:40:43;3.20;;;1.70;;
9997;SDS011;5038;53.064;8.624;2022-08-19T13:43:14;1.83;;;1.57;;
9997;SDS011;5038;53.064;8.624;2022-08-19T13:45:49;2.63;;;1.70;;
9997;SDS011;5038;53.064;8.624;2022-08-19T13:48:22;2.00;;;1.47;;
9997;SDS011;5038;53.064;8.624;2022-08-19T13:50:53;2.47;;;1.70;;
9997;SDS011;5038;53.064;8.624;2022-08-19T13:53:21;1.87;;;1.63;;
9997;SDS011;5038;53.064;8.624;2022-08-19T13:55:49;2.10;;;1.57;;
9997;SDS011;5038;53.064;8.624;2022-08-19T13:58:21;2.30;;;2.00;;
9997;SDS011;5038;53.064;8.624;2022-08-19T14:00:49;2.47;;;1.63;;
9997;SDS011;5038;53.064;8.624;2022-08-19T14:03:18;2.03;;;1.73;;
9997;SDS011;5038;53.064;8.624;2022-08-19T14:05:46;1.93;;;1.70;;
9997;SDS011;5038;53.064;8.624;2022-08-19T14:08:14;2.07;;;1.70;;
9997;SDS011;5038;53.064;8.624;2022-08-19T14:10:43;1.90;;;1.70;;
9997;SDS011;5038;53.064;8.624;2022-08-19T14:13:13;2.20;;;2.00;;
9997;SDS011;5038;53.064;8.624;2022-08-19T14:15:45;2.30;;;2.10;;
9997;SDS011;5038;53.064;8.624;2022-08-19T14:18:14;2.90;;;2.53;;
9997;SDS011;5038;53.064;8.624;2022-08-19T14:20:44;2.30;;;2.00;;
9997;SDS011;5038;53.064;8.624;2022-08-19T14:23:12;2.33;;;2.13;;
9997;SDS011;5038;53.064;8.624;2022-08-19T14:25:40;2.10;;;1.80;;
9997;SDS011;5038;53.064;8.624;2022-08-19T14:28:09;4.20;;;1.93;;
9997;SDS011;5038;53.064;8.624;2022-08-19T14:30:37;1.90;;;1.70;;
9997;SDS011;5038;53.064;8.624;2022-08-19T14:33:07;3.40;;;2.00;;
9997;SDS011;5038;53.064;8.624;2022-08-19T14:35:35;4.60;;;2.27;;
9997;SDS011;5038;53.064;8.624;2022-08-19T14:38:04;2.00;;;1.80;;
9997;SDS011;5038;53.064;8.624;2022-08-19T14:40:34;4.43;;;1.97;;
9997;SDS011;5038;53.064;8.624;2022-08-19T14:43:03;2.17;;;1.90;;
9997;SDS011;5038;53.064;8.624;2022-08-19T14:45:32;2.27;;;1.87;;
9997;SDS011;5038;53.064;8.624;2022-08-19T14:48:02;3.43;;;2.10;;
9997;SDS011;5038;53.064;8.624;2022-08-19T14:50:32;2.90;;;2.70;;
9997;SDS011;5038;53.064;8.624;2022-08-19T14:53:03;2.33;;;2.03;;
9997;SDS011;5038;53.064;8.624;2022-08-19T14:55:40;2.73;;;1.77;;
9997;SDS011;5038;53.064;8.624;2022-08-19T14:58:09;2.57;;;1.80;;
9997;SDS011;5038;53.064;8.624;2022-08-19T15:00:56;2.93;;;2.17;;
9997;SDS011;5038;53.064;8.624;2022-08-19T15:03:25;2.70;;;2.07;;
9997;SDS011;5038;53.064;8.624;2022-08-19T15:05:55;2.40;;;2.20;;
9997;SDS011;5038;53.064;8.624;2022-08-19T15:08:24;2.90;;;2.13;;
9997;SDS011;5038;53.064;8.624;2022-08-19T15:10:52;3.90;;;2.23;;
9997;SDS011;5038;53.064;8.624;2022-08-19T15:13:21;2.07;;;1.87;;
9997;SDS011;5038;53.064;8.624;2022-08-19T15:15:50;2.40;;;1.80;;
9997;SDS011;5038;53.064;8.624;2022-08-19T15:18:19;2.97;;;2.30;;
9997;SDS011;5038;53.064;8.624;2022-08-19T15:20:48;2.40;;;1.90;;
9997;SDS011;5038;53.064;8.624;2022-08-19T15:23:18;4.00;;;2.63;;
9997;SDS011;5038;53.064;8.624;2022-08-19T15:25:48;2.77;;;2.33;;
9997;SDS011;5038;53.064;8.624;2022-08-19T15:28:19;2.43;;;1.97;;
9997;SDS011;5038;53.064;8.624;2022-08-19T15:30:47;2.77;;;2.13;;